Time;durP1;ratioP1;P1;durP2;ratioP2;P2;SDS_P1;SDS_P2;PMS_P1;PMS_P2;Temp;Humidity;BMP_temperature;BMP_pressure;BME280_temperature;BME280_humidity;BME280_pressure;Samples;Min_cycle;Max_cycle;Signal;HPM_P1;HPM_P2
2023/09/17 00:02:14;;;;;;;;;10.67;10.67;;;;;22.59;100.00;100943.69;5061391;28;45473;-73
2023/09/17 00:04:39;;;;;;;;;15.00;13.67;;;;;22.60;100.00;100946.31;5055661;27;71636;-74
2023/09/17 00:07:05;;;;;;;;;13.33;12.00;;;;;22.58;100.00;100941.91;5047336;28;63790;-73
2023/09/17 00:09:30;;;;;;;;;11.67;11.67;;;;;22.53;100.00;100943.88;5056501;28;60218;-73
2023/09/17 00:11:55;;;;;;;;;12.00;10.00;;;;;22.53;100.00;100943.88;5052839;28;63343;-73
2023/09/17 00:14:21;;;;;;;;;12.00;11.00;;;;;22.55;100.00;100947.41;5057805;28;68856;-73
2023/09/17 00:16:47;;;;;;;;;12.33;11.33;;;;;22.49;100.00;100941.31;5056818;28;45622;-73
2023/09/17 00:19:12;;;;;;;;;10.00;9.33;;;;;22.52;100.00;100942.13;5056926;28;45334;-73
2023/09/17 00:21:38;;;;;;;;;13.00;11.67;;;;;22.48;100.00;100936.88;5056923;28;50989;-73
2023/09/17 00:24:03;;;;;;;;;10.33;10.33;;;;;22.47;100.00;100937.78;5054632;28;46415;-73
2023/09/17 00:26:29;;;;;;;;;10.00;10.00;;;;;22.51;100.00;100945.75;5055484;28;45504;-73
2023/09/17 00:28:54;;;;;;;;;11.00;10.00;;;;;22.47;100.00;100940.47;5055414;28;45467;-73
2023/09/17 00:31:19;;;;;;;;;12.33;11.33;;;;;22.45;100.00;100934.28;5057531;28;62160;-73
2023/09/17 00:33:44;;;;;;;;;10.00;10.00;;;;;22.45;100.00;100941.47;5057271;28;68443;-73
2023/09/17 00:36:10;;;;;;;;;12.67;11.67;;;;;22.43;100.00;100937.97;5054185;28;61576;-73
2023/09/17 00:38:35;;;;;;;;;12.33;12.33;;;;;22.43;100.00;100935.28;5057062;28;45508;-73
2023/09/17 00:41:00;;;;;;;;;9.67;9.67;;;;;22.41;100.00;100931.75;5057613;28;61843;-74
2023/09/17 00:43:26;;;;;;;;;9.67;9.67;;;;;22.41;100.00;100932.63;5056946;28;59581;-73
2023/09/17 00:45:51;;;;;;;;;10.33;9.33;;;;;22.40;100.00;100930.00;5048413;28;45319;-73
2023/09/17 00:48:17;;;;;;;;;10.33;9.00;;;;;22.34;100.00;100931.13;5053420;28;63737;-75
2023/09/17 00:50:43;;;;;;;;;8.67;8.67;;;;;22.40;100.00;100935.41;5056472;28;58655;-73
2023/09/17 00:53:09;;;;;;;;;9.33;7.33;;;;;22.41;100.00;100932.63;5054627;28;46337;-73
2023/09/17 00:55:35;;;;;;;;;10.33;8.00;;;;;22.42;100.00;100938.88;5055073;28;45458;-74
2023/09/17 00:58:00;;;;;;;;;7.00;7.00;;;;;22.39;100.00;100931.81;5056828;28;45485;-73
2023/09/17 01:00:25;;;;;;;;;8.00;8.00;;;;;22.34;100.00;100928.41;5055139;28;63362;-73
2023/09/17 01:02:52;;;;;;;;;8.67;7.00;;;;;22.39;100.00;100939.91;5056202;28;46676;-75
2023/09/17 01:05:17;;;;;;;;;8.00;7.00;;;;;22.40;100.00;100935.41;5056029;28;45576;-73
2023/09/17 01:07:43;;;;;;;;;11.33;8.00;;;;;22.39;100.00;100937.22;5056161;28;45307;-74
2023/09/17 01:10:09;;;;;;;;;9.00;8.00;;;;;22.38;100.00;100935.47;5050393;28;53610;-73
2023/09/17 01:12:35;;;;;;;;;6.00;6.00;;;;;22.39;100.00;100937.22;5056488;28;45648;-74
2023/09/17 01:15:08;;;;;;;;;7.00;7.00;;;;;22.35;100.00;100937.38;5058783;28;45544;-74
2023/09/17 01:17:34;;;;;;;;;7.00;7.00;;;;;22.33;100.00;100940.13;5053735;28;45462;-73
2023/09/17 01:20:00;;;;;;;;;8.00;6.67;;;;;22.32;100.00;100940.16;5048049;28;45390;-74
2023/09/17 01:22:32;;;;;;;;;7.00;7.00;;;;;22.32;100.00;100935.69;5054583;28;46652;-74
2023/09/17 01:25:27;;;;;;;;;8.00;7.00;;;;;22.38;100.00;100937.28;5054709;28;45406;-74
2023/09/17 01:27:52;;;;;;;;;8.00;7.00;;;;;22.40;100.00;100943.47;5045885;28;45425;-73
2023/09/17 01:30:21;;;;;;;;;6.00;6.00;;;;;22.43;100.00;100943.38;5051253;28;67472;-74
2023/09/17 01:32:46;;;;;;;;;6.33;5.67;;;;;22.42;100.00;100937.06;5055904;28;46498;-74
2023/09/17 01:35:13;;;;;;;;;6.33;6.33;;;;;22.36;100.00;100931.91;5054937;28;45465;-73
2023/09/17 01:37:41;;;;;;;;;8.67;8.67;;;;;22.39;100.00;100937.22;5057352;28;45476;-73
2023/09/17 01:40:10;;;;;;;;;6.00;6.00;;;;;22.33;100.00;100941.94;5050685;28;45290;-73
2023/09/17 01:42:38;;;;;;;;;10.00;9.00;;;;;22.34;100.00;100941.00;5045639;28;47357;-73
2023/09/17 01:45:06;;;;;;;;;7.00;7.00;;;;;22.27;100.00;100943.03;5052769;28;45412;-73
2023/09/17 01:47:32;;;;;;;;;8.00;7.00;;;;;22.31;100.00;100930.34;5048313;28;45417;-73
2023/09/17 01:49:59;;;;;;;;;6.33;6.33;;;;;22.31;100.00;100933.03;5056334;28;45493;-72
2023/09/17 01:52:26;;;;;;;;;6.00;6.00;;;;;22.27;100.00;100940.34;5054889;28;45920;-73
2023/09/17 01:54:52;;;;;;;;;6.00;6.00;;;;;22.26;100.00;100935.00;5053662;28;45579;-73
2023/09/17 01:57:18;;;;;;;;;8.33;7.00;;;;;22.25;100.00;100933.25;5054036;28;45439;-73
2023/09/17 01:59:43;;;;;;;;;8.67;8.00;;;;;22.26;100.00;100937.69;5054150;28;45454;-73
2023/09/17 02:02:08;;;;;;;;;8.33;7.33;;;;;22.22;100.00;100931.56;5055389;28;72531;-73
2023/09/17 02:04:34;;;;;;;;;7.33;7.33;;;;;22.22;100.00;100931.56;5056471;28;45262;-73
2023/09/17 02:06:59;;;;;;;;;10.33;7.00;;;;;22.22;100.00;100936.94;5056237;28;65694;-73
2023/09/17 02:09:25;;;;;;;;;7.33;7.33;;;;;22.24;100.00;100932.38;5052772;28;45251;-73
2023/09/17 02:11:50;;;;;;;;;7.67;7.67;;;;;22.25;100.00;100933.25;5056159;28;46400;-73
2023/09/17 02:14:16;;;;;;;;;7.00;6.67;;;;;22.22;100.00;100927.06;5055880;28;65701;-73
2023/09/17 02:16:43;;;;;;;;;9.00;7.33;;;;;22.22;100.00;100923.50;5044694;28;45462;-73
2023/09/17 02:19:09;;;;;;;;;8.67;7.00;;;;;22.22;100.00;100927.06;5053088;28;45328;-73
2023/09/17 02:21:35;;;;;;;;;6.67;6.00;;;;;22.21;100.00;100922.63;5056011;28;46335;-73
2023/09/17 02:24:00;;;;;;;;;7.33;7.33;;;;;22.20;100.00;100919.97;5056519;28;45192;-72
2023/09/17 02:26:26;;;;;;;;;4.67;4.67;;;;;22.15;100.00;100921.94;5055777;28;45248;-73
2023/09/17 02:28:51;;;;;;;;;9.00;9.00;;;;;22.12;100.00;100909.50;5056395;28;45555;-73
2023/09/17 02:31:17;;;;;;;;;8.00;6.33;;;;;22.13;100.00;100913.06;5056115;28;45576;-73
2023/09/17 02:33:42;;;;;;;;;7.00;7.00;;;;;22.12;100.00;100919.38;5056525;28;45323;-74
2023/09/17 02:36:07;;;;;;;;;8.33;8.00;;;;;22.16;100.00;100921.03;5055109;28;61246;-73
2023/09/17 02:38:33;;;;;;;;;7.33;7.33;;;;;22.10;100.00;100913.13;5056543;28;45269;-73
2023/09/17 02:40:58;;;;;;;;;10.00;9.00;;;;;22.08;100.00;100907.78;5056237;28;53234;-74
2023/09/17 02:43:24;;;;;;;;;10.00;10.00;;;;;22.08;100.00;100909.63;5050093;28;45742;-73
2023/09/17 02:45:49;;;;;;;;;7.00;7.00;;;;;22.03;100.00;100906.19;5054704;28;52933;-73
2023/09/17 02:48:15;;;;;;;;;9.33;8.00;;;;;22.02;100.00;100904.44;5056619;28;45299;-74
2023/09/17 02:50:40;;;;;;;;;8.33;8.00;;;;;22.05;100.00;100916.00;5053979;28;45577;-73
2023/09/17 02:53:07;;;;;;;;;8.67;7.00;;;;;21.97;100.00;100918.94;5055364;28;45342;-74
2023/09/17 02:55:34;;;;;;;;;11.67;10.33;;;;;22.00;100.00;100909.91;5053359;28;45530;-73
2023/09/17 02:58:01;;;;;;;;;13.67;12.33;;;;;22.01;100.00;100911.66;5056503;28;45590;-73
2023/09/17 03:00:26;;;;;;;;;14.67;12.33;;;;;21.95;100.00;100910.06;5054402;28;45621;-73
2023/09/17 03:02:54;;;;;;;;;14.00;14.00;;;;;22.02;100.00;100904.44;5051524;28;67537;-74
2023/09/17 03:05:20;;;;;;;;;16.33;13.33;;;;;22.00;100.00;100904.53;5052383;28;45541;-73
2023/09/17 03:07:46;;;;;;;;;16.33;13.33;;;;;22.00;100.00;100909.00;5054433;28;45360;-73
2023/09/17 03:10:12;;;;;;;;;20.33;17.00;;;;;21.96;100.00;100906.44;5045135;28;46338;-73
2023/09/17 03:12:41;;;;;;;;;17.67;16.00;;;;;21.95;100.00;100912.75;5053818;28;45939;-73
2023/09/17 03:15:07;;;;;;;;;16.33;14.67;;;;;21.95;100.00;100912.75;5056596;28;45316;-73
2023/09/17 03:17:35;;;;;;;;;19.00;17.00;;;;;21.94;100.00;100913.69;5065500;27;45485;-74
2023/09/17 03:20:13;;;;;;;;;22.67;18.67;;;;;21.99;100.00;100910.81;5052421;28;46459;-73
2023/09/17 03:22:38;;;;;;;;;15.67;15.67;;;;;21.96;100.00;100906.44;5055803;28;45557;-73
2023/09/17 03:25:05;;;;;;;;;23.67;18.67;;;;;21.95;100.00;100903.81;5054708;28;57760;-73
2023/09/17 03:27:33;;;;;;;;;17.67;16.67;;;;;21.91;100.00;100892.25;5055664;28;45311;-73
2023/09/17 03:29:59;;;;;;;;;18.67;15.67;;;;;21.94;100.00;100907.41;5055481;28;46448;-73
2023/09/17 03:32:24;;;;;;;;;15.67;15.67;;;;;21.94;100.00;100907.41;5057113;28;45481;-73
2023/09/17 03:34:49;;;;;;;;;16.33;13.00;;;;;21.92;100.00;100909.28;5058865;28;45346;-74
2023/09/17 03:37:15;;;;;;;;;19.67;17.67;;;;;21.88;100.00;100905.78;5055161;28;63351;-73
2023/09/17 03:39:42;;;;;;;;;18.67;16.67;;;;;21.87;100.00;100904.03;5058644;28;46304;-73
2023/09/17 03:42:07;;;;;;;;;14.67;14.33;;;;;21.89;100.00;100896.81;5059064;28;45338;-73
2023/09/17 03:44:33;;;;;;;;;18.00;14.33;;;;;21.87;100.00;100887.91;5053677;28;45312;-73
2023/09/17 03:46:58;;;;;;;;;16.00;13.33;;;;;21.89;100.00;100891.44;5059285;28;45406;-73
2023/09/17 03:49:26;;;;;;;;;17.67;17.67;;;;;21.89;100.00;100899.50;5047888;28;68637;-73
2023/09/17 03:51:51;;;;;;;;;19.67;18.33;;;;;21.92;100.00;100895.81;5059084;28;45314;-74
2023/09/17 03:54:17;;;;;;;;;17.67;16.33;;;;;21.87;100.00;100893.28;5052180;28;45455;-73
2023/09/17 03:56:43;;;;;;;;;18.00;17.00;;;;;21.85;100.00;100889.78;5056182;28;45450;-74
2023/09/17 03:59:09;;;;;;;;;15.33;15.33;;;;;21.86;100.00;100893.34;5058780;28;45499;-75
2023/09/17 04:01:34;;;;;;;;;14.33;13.00;;;;;21.86;100.00;100904.09;5051029;28;45464;-76
2023/09/17 04:03:59;;;;;;;;;16.67;16.00;;;;;21.87;100.00;100905.88;5056582;28;45501;-74
2023/09/17 04:06:26;;;;;;;;;16.00;13.00;;;;;21.86;100.00;100898.72;5052085;28;45501;-75
2023/09/17 04:08:51;;;;;;;;;19.33;17.00;;;;;21.84;100.00;100898.78;5050512;28;46412;-75
2023/09/17 04:11:17;;;;;;;;;14.67;14.67;;;;;21.82;100.00;100897.94;5055113;28;46695;-75
2023/09/17 04:13:43;;;;;;;;;19.33;14.67;;;;;21.84;100.00;100896.09;5043465;28;45340;-75
2023/09/17 04:16:09;;;;;;;;;17.67;14.00;;;;;21.79;100.00;100899.88;5068311;28;45524;-74
2023/09/17 04:18:35;;;;;;;;;17.00;15.67;;;;;21.80;100.00;100891.75;5045311;27;47496;-75
2023/09/17 04:21:00;;;;;;;;;13.33;13.33;;;;;21.84;100.00;100898.78;5056704;28;66319;-75
2023/09/17 04:23:25;;;;;;;;;13.00;12.00;;;;;21.82;100.00;100900.63;5054630;28;66203;-75
2023/09/17 04:25:51;;;;;;;;;16.00;13.00;;;;;21.84;100.00;100909.56;5054219;28;45334;-75
2023/09/17 04:28:19;;;;;;;;;15.33;12.67;;;;;21.81;100.00;100904.25;5044764;28;70447;-74
2023/09/17 04:30:44;;;;;;;;;15.33;13.67;;;;;21.81;100.00;100901.56;5043486;28;46345;-75
2023/09/17 04:33:09;;;;;;;;;8.67;8.67;;;;;21.80;100.00;100898.94;5055257;28;63105;-74
2023/09/17 04:35:35;;;;;;;;;12.00;12.00;;;;;21.80;100.00;100898.94;5049006;28;49157;-75
2023/09/17 04:38:00;;;;;;;;;20.00;15.00;;;;;21.80;100.00;100893.56;5057401;28;46338;-75
2023/09/17 04:40:28;;;;;;;;;16.00;15.00;;;;;21.74;100.00;100894.66;5046898;28;64399;-75
2023/09/17 04:42:53;;;;;;;;;15.00;13.67;;;;;21.68;100.00;100889.50;5056976;28;45530;-74
2023/09/17 04:45:34;;;;;;;;;17.67;14.33;;;;;21.63;100.00;100889.66;5049184;28;45485;-75
2023/09/17 04:48:00;;;;;;;;;17.00;13.67;;;;;21.54;100.00;100894.44;5054281;28;46626;-74
2023/09/17 04:50:26;;;;;;;;;13.67;12.33;;;;;21.50;100.00;100893.66;5048514;28;45465;-76
2023/09/17 04:52:51;;;;;;;;;15.00;13.00;;;;;21.48;100.00;100905.41;5050589;28;45534;-76
2023/09/17 04:55:17;;;;;;;;;15.67;14.33;;;;;21.45;100.00;100904.56;5043349;28;63284;-76
2023/09/17 04:57:42;;;;;;;;;16.00;14.67;;;;;21.44;100.00;100907.31;5043787;28;45851;-76
2023/09/17 05:00:11;;;;;;;;;12.33;12.33;;;;;21.51;100.00;100907.97;5047793;28;69080;-76
2023/09/17 05:02:38;;;;;;;;;13.00;13.00;;;;;21.53;100.00;100906.13;5053337;28;45354;-76
2023/09/17 05:05:05;;;;;;;;;15.00;12.00;;;;;21.52;100.00;100902.56;5056138;28;45435;-77
2023/09/17 05:07:30;;;;;;;;;18.33;14.33;;;;;21.49;100.00;100908.03;5050378;28;47552;-76
2023/09/17 05:09:56;;;;;;;;;13.00;12.00;;;;;21.48;100.00;100908.09;5049673;28;67424;-76
2023/09/17 05:12:21;;;;;;;;;14.00;14.00;;;;;21.49;100.00;100905.34;5049995;28;66743;-76
2023/09/17 05:14:46;;;;;;;;;13.00;13.00;;;;;21.44;100.00;100905.50;5051377;28;45396;-76
2023/09/17 05:17:13;;;;;;;;;12.67;12.67;;;;;21.44;100.00;100902.81;5056042;28;72463;-76
2023/09/17 05:19:38;;;;;;;;;13.67;12.00;;;;;21.39;100.00;100902.06;5047804;28;45462;-76
2023/09/17 05:22:04;;;;;;;;;12.33;10.67;;;;;21.39;100.00;100899.38;5051868;28;63825;-75
2023/09/17 05:24:29;;;;;;;;;12.33;11.00;;;;;21.35;100.00;100897.72;5055414;28;62878;-76
2023/09/17 05:26:54;;;;;;;;;12.00;11.67;;;;;21.34;100.00;100905.84;5051526;28;62410;-78
2023/09/17 05:29:20;;;;;;;;;12.33;12.00;;;;;21.32;100.00;100913.97;5051568;28;66235;-77
2023/09/17 05:31:45;;;;;;;;;9.67;9.67;;;;;21.33;100.00;100918.41;5053142;28;45520;-76
2023/09/17 05:34:10;;;;;;;;;11.33;11.00;;;;;21.32;100.00;100907.72;5045982;28;45657;-77
2023/09/17 05:36:36;;;;;;;;;13.67;11.67;;;;;21.30;100.00;100907.75;5057158;28;47154;-76
2023/09/17 05:39:02;;;;;;;;;10.67;10.67;;;;;21.30;100.00;100906.88;5048660;28;53196;-78
2023/09/17 05:41:27;;;;;;;;;14.33;12.00;;;;;21.28;100.00;100900.63;5048619;28;45469;-76
2023/09/17 05:43:52;;;;;;;;;11.67;10.67;;;;;21.28;100.00;100901.50;5055614;28;62880;-76
2023/09/17 05:46:18;;;;;;;;;9.67;9.33;;;;;21.25;100.00;100900.72;5056618;28;68225;-76
2023/09/17 05:48:43;;;;;;;;;12.33;12.00;;;;;21.24;100.00;100912.41;5056798;28;66384;-76
2023/09/17 05:51:08;;;;;;;;;12.67;11.67;;;;;21.24;100.00;100907.91;5045145;28;60142;-77
2023/09/17 05:53:35;;;;;;;;;11.33;11.33;;;;;21.24;100.00;100907.03;5045947;28;61619;-76
2023/09/17 05:56:01;;;;;;;;;13.00;13.00;;;;;21.27;100.00;100904.25;5054963;28;47564;-76
2023/09/17 05:58:26;;;;;;;;;11.00;11.00;;;;;21.30;100.00;100909.53;5038454;28;45411;-76
2023/09/17 06:00:53;;;;;;;;;8.00;8.00;;;;;21.27;100.00;100902.44;5040400;28;63011;-76
2023/09/17 06:03:18;;;;;;;;;14.00;13.00;;;;;21.24;100.00;100896.28;5047455;28;45642;-76
2023/09/17 06:05:44;;;;;;;;;11.33;7.33;;;;;21.24;100.00;100889.09;5056550;28;46050;-76
2023/09/17 06:08:09;;;;;;;;;9.00;8.00;;;;;21.26;100.00;100889.97;5050576;28;45509;-76
2023/09/17 06:10:34;;;;;;;;;8.67;7.33;;;;;21.26;100.00;100878.34;5055316;28;53865;-76
2023/09/17 06:13:00;;;;;;;;;11.67;9.33;;;;;21.28;100.00;100879.16;5055231;28;45323;-77
2023/09/17 06:15:25;;;;;;;;;6.00;6.00;;;;;21.27;100.00;100882.78;5056103;28;47366;-76
2023/09/17 06:17:51;;;;;;;;;6.67;5.67;;;;;21.27;100.00;100889.03;5055211;28;45339;-76
2023/09/17 06:20:17;;;;;;;;;5.33;5.33;;;;;21.33;100.00;100894.22;5052467;28;64154;-76
2023/09/17 06:22:42;;;;;;;;;7.00;7.00;;;;;21.36;100.00;100894.13;5045971;28;45513;-77
2023/09/17 06:25:08;;;;;;;;;5.00;5.00;;;;;21.42;100.00;100893.94;5051649;28;46373;-76
2023/09/17 06:27:34;;;;;;;;;5.00;5.00;;;;;21.50;100.00;100906.22;5052826;28;45425;-77
2023/09/17 06:30:00;;;;;;;;;7.00;7.00;;;;;21.50;100.00;100909.78;5049079;28;45728;-79
2023/09/17 06:32:25;;;;;;;;;8.00;6.67;;;;;21.55;100.00;100915.00;5039837;28;45406;-76
2023/09/17 06:34:50;;;;;;;;;6.00;6.00;;;;;21.61;100.00;100912.13;5044806;28;61852;-75
2023/09/17 06:37:16;;;;;;;;;6.00;6.00;;;;;21.68;100.00;100911.00;5049292;28;65836;-76
2023/09/17 06:39:42;;;;;;;;;5.00;5.00;;;;;21.77;100.00;100910.66;5048751;28;64828;-76
2023/09/17 06:42:07;;;;;;;;;5.00;5.00;;;;;21.90;100.00;100917.41;5052267;28;46074;-76
2023/09/17 06:44:32;;;;;;;;;9.00;6.67;;;;;22.01;100.00;100902.72;5049348;28;47552;-76
2023/09/17 06:46:58;;;;;;;;;6.33;4.67;;;;;22.14;100.00;100904.03;5047690;28;54436;-75
2023/09/17 06:49:23;;;;;;;;;6.00;5.00;;;;;22.24;100.00;100905.47;5051635;28;63680;-75
2023/09/17 06:51:51;;;;;;;;;7.67;5.67;;;;;22.30;100.00;100907.94;5040746;28;62691;-75
2023/09/17 06:54:17;;;;;;;;;6.00;6.00;;;;;22.35;100.00;100900.56;5046402;28;46547;-75
2023/09/17 06:56:42;;;;;;;;;6.67;6.67;;;;;22.43;100.00;100892.25;5044717;28;45332;-75
2023/09/17 06:59:07;;;;;;;;;6.00;6.00;;;;;22.47;100.00;100904.63;5048444;28;64214;-75
2023/09/17 07:01:33;;;;;;;;;6.00;6.00;;;;;22.51;100.00;100898.19;5051235;28;46770;-75
2023/09/17 07:03:58;;;;;;;;;9.33;6.67;;;;;22.59;100.00;100903.31;5052396;28;46486;-74
2023/09/17 07:06:24;;;;;;;;;5.00;5.00;;;;;22.61;100.00;100906.81;5040886;28;67598;-76
2023/09/17 07:08:49;;;;;;;;;5.67;5.67;;;;;22.71;100.00;100906.41;5049112;28;51001;-77
2023/09/17 07:11:14;;;;;;;;;5.00;4.00;;;;;22.80;100.00;100898.91;5039196;28;45568;-75
2023/09/17 07:13:40;;;;;;;;;9.00;6.67;;;;;22.87;100.00;100908.50;5051170;28;67057;-75
2023/09/17 07:16:06;;;;;;;;;5.33;5.33;;;;;22.90;100.00;100906.59;5057412;28;45462;-76
2023/09/17 07:18:31;;;;;;;;;7.00;5.33;;;;;22.96;100.00;100894.72;5058027;28;45526;-77
2023/09/17 07:20:57;;;;;;;;;8.00;6.00;;;;;23.03;100.00;100893.53;5047539;28;45549;-76
2023/09/17 07:23:23;;;;;;;;;8.00;6.33;;;;;23.13;100.00;100888.66;5051261;28;45286;-76
2023/09/17 07:25:50;;;;;;;;;6.00;6.00;;;;;23.14;100.00;100877.81;5055241;28;45386;-75
2023/09/17 07:28:15;;;;;;;;;6.00;6.00;;;;;23.16;100.00;100878.63;5051193;28;45935;-75
2023/09/17 07:30:40;;;;;;;;;5.67;5.67;;;;;23.18;100.00;100894.75;5048192;28;45463;-76
2023/09/17 07:33:06;;;;;;;;;3.67;3.00;;;;;23.15;100.00;100889.47;5044028;28;66961;-76
2023/09/17 07:35:32;;;;;;;;;7.33;6.00;;;;;23.17;100.00;100890.28;5045560;28;46282;-75
2023/09/17 07:37:59;;;;;;;;;9.00;6.00;;;;;23.18;100.00;100894.75;5043217;28;46491;-75
2023/09/17 07:40:24;;;;;;;;;5.33;5.33;;;;;23.18;100.00;100898.31;5047438;28;45534;-75
2023/09/17 07:42:49;;;;;;;;;7.33;6.00;;;;;23.20;100.00;100898.25;5046423;28;70995;-75
2023/09/17 07:45:15;;;;;;;;;5.67;5.67;;;;;23.24;100.00;100899.88;5053269;28;65796;-75
2023/09/17 07:47:40;;;;;;;;;6.67;6.33;;;;;23.25;100.00;100904.34;5052295;28;45500;-76
2023/09/17 07:50:06;;;;;;;;;5.67;5.00;;;;;23.29;100.00;100910.47;5049671;28;62583;-75
2023/09/17 07:52:32;;;;;;;;;7.00;5.00;;;;;23.32;100.00;100913.91;5043457;28;46582;-76
2023/09/17 07:54:57;;;;;;;;;7.67;6.67;;;;;23.35;100.00;100908.41;5053628;28;45350;-75
2023/09/17 07:57:23;;;;;;;;;5.67;5.67;;;;;23.41;100.00;100908.16;5043967;28;64149;-75
2023/09/17 07:59:48;;;;;;;;;3.33;3.33;;;;;23.45;100.00;100909.78;5041553;28;45422;-76
2023/09/17 08:02:14;;;;;;;;;8.33;7.00;;;;;23.49;100.00;100911.44;5045171;28;47250;-75
2023/09/17 08:04:59;;;;;;;;;5.00;5.00;;;;;23.56;100.00;100909.34;5049662;28;64465;-75
2023/09/17 08:07:25;;;;;;;;;5.00;5.00;;;;;23.66;100.00;100912.56;5045800;28;45936;-75
2023/09/17 08:09:50;;;;;;;;;7.67;6.67;;;;;23.75;100.00;100922.94;5053910;28;62348;-75
2023/09/17 08:12:15;;;;;;;;;6.00;6.00;;;;;23.83;100.00;100922.66;5158585;22;67529;-75
2023/09/17 08:14:46;;;;;;;;;7.00;6.00;;;;;23.92;100.00;100925.84;5054158;28;65523;-75
2023/09/17 08:17:11;;;;;;;;;6.67;6.00;;;;;24.01;100.00;100930.81;5065574;27;45586;-75
2023/09/17 08:19:38;;;;;;;;;8.33;8.33;;;;;24.07;100.00;100931.50;5059012;27;45457;-76
2023/09/17 08:22:04;;;;;;;;;6.00;6.00;;;;;24.09;100.00;100930.50;5054870;27;46738;-76
2023/09/17 08:24:30;;;;;;;;;6.33;6.00;;;;;24.15;100.00;100926.66;5061397;27;45832;-76
2023/09/17 08:26:56;;;;;;;;;6.00;6.00;;;;;24.16;100.00;100923.00;5062703;27;47061;-77
2023/09/17 08:29:22;;;;;;;;;5.33;5.33;;;;;24.21;100.00;100913.75;5053337;27;45567;-77
2023/09/17 08:31:48;;;;;;;;;5.00;5.00;;;;;24.23;100.00;100903.75;5057880;28;46159;-77
2023/09/17 08:34:16;;;;;;;;;5.33;5.33;;;;;24.26;100.00;100898.25;5062289;28;46246;-76
2023/09/17 08:36:43;;;;;;;;;5.00;5.00;;;;;24.29;100.00;100889.16;5060490;27;45523;-76
2023/09/17 08:39:09;;;;;;;;;6.00;6.00;;;;;24.30;100.00;100896.28;5063208;28;45497;-76
2023/09/17 08:41:35;;;;;;;;;6.00;6.00;;;;;24.27;100.00;100905.38;5068404;27;47717;-76
2023/09/17 08:44:03;;;;;;;;;7.00;6.00;;;;;24.28;100.00;100906.25;5063774;27;45522;-76
2023/09/17 08:46:30;;;;;;;;;7.00;4.33;;;;;24.31;100.00;100900.75;5057523;28;47102;-76
2023/09/17 08:48:55;;;;;;;;;7.33;6.00;;;;;24.33;100.00;100893.44;5069512;27;45512;-77
2023/09/17 08:51:23;;;;;;;;;6.00;6.00;;;;;24.35;100.00;100886.19;5057374;28;68311;-76
2023/09/17 08:54:05;;;;;;;;;6.67;6.67;;;;;24.35;100.00;100890.69;5065723;28;45521;-76
2023/09/17 08:56:32;;;;;;;;;8.00;7.00;;;;;24.39;100.00;100881.50;5067730;28;45631;-75
2023/09/17 08:59:06;;;;;;;;;5.00;3.67;;;;;24.34;100.00;100887.09;5065093;28;45781;-76
2023/09/17 09:01:32;;;;;;;;;6.33;4.67;;;;;24.36;100.00;100904.13;5062606;28;47479;-76
2023/09/17 09:03:57;;;;;;;;;8.00;5.00;;;;;24.38;100.00;100891.44;5061273;28;45723;-76
2023/09/17 09:06:24;;;;;;;;;4.00;4.00;;;;;24.41;100.00;100896.72;5064193;27;56544;-76
2023/09/17 09:08:52;;;;;;;;;8.00;6.33;;;;;24.47;100.00;100911.75;5067374;28;45440;-76
2023/09/17 09:11:18;;;;;;;;;7.67;5.67;;;;;24.51;100.00;100924.16;5068240;27;47399;-75
2023/09/17 09:13:44;;;;;;;;;8.00;8.00;;;;;24.55;100.00;100926.66;5069351;27;45527;-76
2023/09/17 09:16:09;;;;;;;;;6.33;4.00;;;;;24.59;100.00;100916.59;5063215;27;45815;-76
2023/09/17 09:18:35;;;;;;;;;7.00;6.00;;;;;24.66;100.00;100899.16;5064903;27;45600;-77
2023/09/17 09:21:00;;;;;;;;;5.00;5.00;;;;;24.70;100.00;100881.84;5067783;27;47526;-78
2023/09/17 09:23:26;;;;;;;;;7.00;7.00;;;;;24.79;100.00;100889.53;5064260;27;45452;-77
2023/09/17 09:25:52;;;;;;;;;8.00;6.33;;;;;24.86;100.00;100898.22;5065128;28;45561;-77
2023/09/17 09:28:17;;;;;;;;;6.00;4.00;;;;;24.93;100.00;100887.97;5062880;27;59186;-76
2023/09/17 09:30:46;;;;;;;;;6.00;6.00;;;;;24.98;100.00;100883.25;5064838;27;46503;-77
2023/09/17 09:33:12;;;;;;;;;9.00;7.67;;;;;25.01;100.00;100889.38;5061612;27;45513;-77
2023/09/17 09:35:38;;;;;;;;;7.33;7.33;;;;;25.03;100.00;100882.06;5060912;28;47645;-78
2023/09/17 09:38:03;;;;;;;;;8.00;6.00;;;;;25.08;100.00;100888.16;5061226;27;45438;-77
2023/09/17 09:40:29;;;;;;;;;6.00;6.00;;;;;25.14;100.00;100888.81;5061720;27;46360;-77
2023/09/17 09:42:54;;;;;;;;;8.33;6.33;;;;;25.17;100.00;100881.44;5075934;27;45441;-76
2023/09/17 09:45:20;;;;;;;;;6.67;6.67;;;;;25.26;100.00;100880.13;5064688;28;63079;-77
2023/09/17 09:47:49;;;;;;;;;10.00;7.33;;;;;25.37;100.00;100880.47;5065908;27;45884;-77
2023/09/17 09:50:25;;;;;;;;;7.67;6.00;;;;;25.51;100.00;100879.75;5064389;27;45630;-77
2023/09/17 09:52:51;;;;;;;;;6.67;6.67;;;;;25.60;100.00;100872.06;5062591;27;45531;-76
2023/09/17 09:55:17;;;;;;;;;8.00;7.00;;;;;25.74;100.00;100867.78;5062463;27;45531;-79
2023/09/17 09:57:42;;;;;;;;;8.67;8.67;;;;;25.83;100.00;100870.94;5075486;27;45345;-77
2023/09/17 10:00:20;;;;;;;;;9.00;8.33;;;;;25.94;100.00;100866.78;5065063;27;69824;-77
2023/09/17 10:02:46;;;;;;;;;10.00;9.00;;;;;26.04;100.00;100847.25;5068030;28;45430;-77
2023/09/17 10:05:12;;;;;;;;;10.00;8.00;;;;;26.16;100.00;100843.06;5063146;28;45367;-77
2023/09/17 10:07:38;;;;;;;;;8.67;7.00;;;;;26.30;100.00;100836.88;5070267;28;45300;-78
2023/09/17 10:10:05;;;;;;;;;6.00;6.00;;;;;26.38;100.00;100819.28;5062065;28;47401;-77
2023/09/17 10:12:31;;;;;;;;;8.67;6.33;;;;;26.48;100.00;100814.25;5067785;27;45612;-77
2023/09/17 10:14:56;;;;;;;;;7.00;7.00;;;;;26.57;100.00;100811.00;5064279;27;63786;-77
2023/09/17 10:17:21;;;;;;;;;8.33;8.33;;;;;26.65;100.00;100816.03;5062152;28;53905;-77
2023/09/17 10:19:47;;;;;;;;;10.67;10.33;;;;;26.72;100.00;100812.00;5068777;28;66722;-77
2023/09/17 10:22:15;;;;;;;;;7.33;5.33;;;;;26.77;100.00;100804.47;5061412;28;45499;-77
2023/09/17 10:24:41;;;;;;;;;10.00;8.67;;;;;26.79;100.00;100807.09;5064408;28;45400;-77
2023/09/17 10:27:07;;;;;;;;;8.00;7.00;;;;;26.79;100.00;100799.88;5070881;28;45626;-76
2023/09/17 10:29:34;;;;;;;;;9.00;8.00;;;;;26.82;100.00;100787.97;5060832;27;46426;-77
2023/09/17 10:32:01;;;;;;;;;8.33;8.33;;;;;26.87;100.00;100791.28;5067951;27;45461;-77
2023/09/17 10:34:27;;;;;;;;;10.00;10.00;;;;;26.92;100.00;100789.19;5062747;28;45467;-78
2023/09/17 10:36:53;;;;;;;;;7.67;6.00;;;;;26.94;100.00;100795.38;5069104;28;45545;-76
2023/09/17 10:39:19;;;;;;;;;7.00;7.00;;;;;26.94;100.00;100776.41;5073385;27;67744;-77
2023/09/17 10:41:45;;;;;;;;;16.33;15.67;;;;;26.95;100.00;100780.00;5068639;27;67200;-76
2023/09/17 10:44:13;;;;;;;;;20.00;16.00;;;;;26.95;100.00;100771.88;5071174;27;45339;-78
2023/09/17 10:46:42;;;;;;;;;10.00;10.00;;;;;26.94;100.00;100778.25;5061754;28;46450;-77
2023/09/17 10:49:09;;;;;;;;;11.67;11.00;;;;;26.89;100.00;100773.97;5067234;28;46173;-77
2023/09/17 10:51:34;;;;;;;;;9.33;9.33;;;;;26.91;100.00;100779.31;5063694;27;45477;-78
2023/09/17 10:54:00;;;;;;;;;8.00;8.00;;;;;26.93;100.00;100780.09;5070636;27;65757;-77
2023/09/17 10:56:25;;;;;;;;;10.33;8.00;;;;;26.97;100.00;100773.53;5069013;27;45229;-77
2023/09/17 10:58:52;;;;;;;;;13.67;12.67;;;;;27.00;100.00;100762.50;5068283;27;46383;-78
2023/09/17 11:01:21;;;;;;;;;12.00;11.00;;;;;26.97;100.00;100761.81;5072496;27;45430;-77
2023/09/17 11:03:50;;;;;;;;;11.00;11.00;;;;;26.97;100.00;100773.53;5067023;28;45469;-77
2023/09/17 11:06:23;;;;;;;;;11.33;9.33;;;;;27.01;100.00;100775.13;5065361;28;45279;-78
2023/09/17 11:08:49;;;;;;;;;9.67;9.00;;;;;27.05;100.00;100768.53;5063540;28;47632;-78